createdAt,value
2023-04-18T00:00:06.113Z,78.77
2023-04-18T00:01:06.082Z,78.86
2023-04-18T00:02:06.122Z,78.96
2023-04-18T00:03:06.349Z,78.91
2023-04-18T00:04:06.188Z,78.91
2023-04-18T00:05:06.060Z,78.92
2023-04-18T00:06:06.017Z,78.93
2023-04-18T00:07:06.008Z,78.92
2023-04-18T00:08:05.981Z,78.91
2023-04-18T00:09:05.997Z,78.91
2023-04-18T00:10:05.970Z,78.90
2023-04-18T00:11:05.950Z,78.79
2023-04-18T00:12:05.932Z,78.80
2023-04-18T00:13:05.939Z,78.82
2023-04-18T00:14:05.927Z,78.79
2023-04-18T00:15:05.909Z,78.75
2023-04-18T00:16:05.890Z,78.69
2023-04-18T00:17:06.001Z,78.66
2023-04-18T00:18:06.105Z,78.60
2023-04-18T00:19:05.864Z,78.61
2023-04-18T00:20:05.846Z,78.67
2023-04-18T00:21:05.848Z,78.68
2023-04-18T00:22:05.831Z,78.70
2023-04-18T00:23:05.807Z,78.81
2023-04-18T00:24:05.802Z,78.83
2023-04-18T00:25:05.771Z,78.82
2023-04-18T00:26:05.772Z,78.83
2023-04-18T00:27:05.750Z,78.80
2023-04-18T00:28:05.741Z,78.78
2023-04-18T00:29:05.730Z,78.76
2023-04-18T00:30:05.748Z,78.71
2023-04-18T00:31:05.788Z,78.72
2023-04-18T00:32:05.683Z,78.78
2023-04-18T00:33:05.741Z,78.86
2023-04-18T00:34:05.675Z,78.92
2023-04-18T00:35:05.647Z,78.95
2023-04-18T00:36:05.646Z,78.99
2023-04-18T00:37:05.629Z,78.99
2023-04-18T00:38:05.618Z,79.03
2023-04-18T00:39:05.639Z,78.97
2023-04-18T00:40:05.648Z,78.95
2023-04-18T00:41:05.582Z,78.99
2023-04-18T00:42:05.560Z,79.08
2023-04-18T00:43:05.557Z,79.09
2023-04-18T00:44:05.536Z,79.11
2023-04-18T00:45:05.563Z,79.11
2023-04-18T00:46:05.584Z,79.12
2023-04-18T00:47:05.511Z,79.23
2023-04-18T00:48:05.560Z,79.16
2023-04-18T00:49:05.494Z,79.11
2023-04-18T00:50:05.482Z,79.06
2023-04-18T00:51:05.476Z,79.03
2023-04-18T00:52:05.438Z,79.08
2023-04-18T00:53:05.449Z,79.10
2023-04-18T00:54:05.423Z,79.04
2023-04-18T00:55:05.423Z,79.02
2023-04-18T00:56:05.388Z,79.06
2023-04-18T00:57:05.384Z,79.03
2023-04-18T00:58:05.386Z,79.07
2023-04-18T00:59:05.344Z,78.99
2023-04-18T01:00:05.336Z,78.91
2023-04-18T01:01:05.365Z,78.93
2023-04-18T01:02:05.425Z,78.97
2023-04-18T01:03:05.396Z,78.95
2023-04-18T01:04:05.356Z,78.75
2023-04-18T01:05:05.304Z,78.67
2023-04-18T01:06:05.276Z,78.76
2023-04-18T01:07:05.252Z,78.82
2023-04-18T01:08:05.245Z,78.87
2023-04-18T01:09:05.254Z,78.89
2023-04-18T01:10:05.210Z,78.90
2023-04-18T01:11:05.231Z,78.93
2023-04-18T01:12:05.181Z,78.92
2023-04-18T01:13:05.176Z,78.96
2023-04-18T01:14:05.174Z,79.09
2023-04-18T01:15:05.165Z,79.04
2023-04-18T01:16:05.254Z,79.01
2023-04-18T01:17:05.136Z,79.01
2023-04-18T01:18:05.126Z,79.02
2023-04-18T01:19:05.113Z,79.04
2023-04-18T01:20:05.098Z,79.08
2023-04-18T01:21:05.088Z,79.15
2023-04-18T01:22:05.064Z,79.23
2023-04-18T01:23:05.061Z,79.27
2023-04-18T01:24:05.033Z,79.24
2023-04-18T01:25:05.035Z,79.22
2023-04-18T01:26:05.022Z,79.28
2023-04-18T01:27:05.001Z,79.34
2023-04-18T01:28:04.991Z,79.39
2023-04-18T01:29:04.983Z,79.37
2023-04-18T01:30:04.965Z,79.37
2023-04-18T01:31:05.035Z,79.41
2023-04-18T01:32:04.946Z,79.39
2023-04-18T01:33:04.965Z,79.31
2023-04-18T01:34:04.945Z,79.27
2023-04-18T01:35:04.910Z,79.27
2023-04-18T01:36:04.913Z,79.23
2023-04-18T01:37:04.888Z,79.17
2023-04-18T01:38:04.874Z,79.24
2023-04-18T01:39:04.860Z,79.25
2023-04-18T01:40:04.834Z,79.28
2023-04-18T01:41:04.827Z,79.36
2023-04-18T01:42:04.825Z,79.42
2023-04-18T01:43:04.817Z,79.46
2023-04-18T01:44:04.796Z,79.46
2023-04-18T01:45:04.792Z,79.47
2023-04-18T01:46:04.765Z,79.38
2023-04-18T01:47:04.775Z,79.43
2023-04-18T01:48:04.745Z,79.39
2023-04-18T01:49:04.727Z,79.41
2023-04-18T01:50:04.720Z,79.47
2023-04-18T01:51:04.719Z,79.49
2023-04-18T01:52:04.698Z,79.49
2023-04-18T01:53:04.698Z,79.50
2023-04-18T01:54:04.662Z,79.54
2023-04-18T01:55:04.663Z,79.52
2023-04-18T01:56:04.668Z,79.50
2023-04-18T01:57:04.634Z,79.53
2023-04-18T01:58:04.617Z,79.61
2023-04-18T01:59:04.636Z,79.71
2023-04-18T02:00:04.600Z,79.72
2023-04-18T02:01:04.730Z,79.70
2023-04-18T02:02:04.670Z,79.65
2023-04-18T02:03:04.648Z,79.71
2023-04-18T02:04:04.558Z,79.73
2023-04-18T02:05:04.529Z,79.75
2023-04-18T02:06:04.514Z,79.78
2023-04-18T02:07:04.517Z,79.76
2023-04-18T02:08:04.507Z,79.78
2023-04-18T02:09:04.487Z,79.68
2023-04-18T02:10:04.467Z,79.73
2023-04-18T02:11:04.462Z,79.90
2023-04-18T02:12:04.431Z,79.88
2023-04-18T02:13:04.452Z,79.86
2023-04-18T02:14:04.424Z,79.83
2023-04-18T02:15:04.472Z,79.92
2023-04-18T02:16:04.421Z,79.96
2023-04-18T02:17:04.379Z,79.91
2023-04-18T02:18:04.370Z,79.92
2023-04-18T02:19:04.368Z,79.98
2023-04-18T02:20:04.348Z,80.00
2023-04-18T02:21:04.336Z,80.03
2023-04-18T02:22:04.333Z,80.07
2023-04-18T02:23:04.344Z,80.12
2023-04-18T02:24:04.316Z,80.12
2023-04-18T02:25:04.299Z,80.07
2023-04-18T02:26:04.277Z,79.98
2023-04-18T02:27:04.277Z,79.91
2023-04-18T02:28:04.261Z,79.80
2023-04-18T02:29:04.233Z,79.74
2023-04-18T02:30:04.245Z,79.78
2023-04-18T02:31:04.207Z,79.81
2023-04-18T02:32:04.354Z,79.84
2023-04-18T02:33:04.285Z,79.86
2023-04-18T02:34:04.152Z,79.78
2023-04-18T02:35:04.145Z,79.76
2023-04-18T02:36:04.137Z,79.71
2023-04-18T02:37:04.169Z,79.68
2023-04-18T02:38:04.109Z,79.69
2023-04-18T02:39:04.112Z,79.75
2023-04-18T02:40:04.112Z,79.72
2023-04-18T02:41:04.077Z,79.74
2023-04-18T02:42:04.069Z,79.71
2023-04-18T02:43:04.053Z,79.71
2023-04-18T02:44:04.057Z,79.66
2023-04-18T02:45:04.053Z,79.58
2023-04-18T02:46:04.029Z,79.48
2023-04-18T02:47:03.994Z,79.35
2023-04-18T02:48:03.997Z,79.30
2023-04-18T02:49:03.987Z,79.34
2023-04-18T02:50:03.958Z,79.36
2023-04-18T02:51:03.941Z,79.37
2023-04-18T02:52:03.955Z,79.41
2023-04-18T02:53:03.926Z,79.33
2023-04-18T02:54:03.920Z,79.25
2023-04-18T02:55:03.910Z,79.18
2023-04-18T02:56:03.889Z,79.15
2023-04-18T02:57:03.864Z,79.15
2023-04-18T02:58:03.854Z,79.17
2023-04-18T02:59:03.870Z,79.22
2023-04-18T03:00:03.831Z,79.32
2023-04-18T03:01:03.851Z,79.31
2023-04-18T03:02:03.844Z,79.31
2023-04-18T03:03:03.874Z,79.19
2023-04-18T03:04:03.834Z,79.14
2023-04-18T03:05:03.893Z,79.31
2023-04-18T03:06:03.766Z,79.24
2023-04-18T03:07:03.763Z,79.20
2023-04-18T03:08:03.736Z,79.20
2023-04-18T03:09:03.734Z,79.19
2023-04-18T03:10:03.727Z,79.11
2023-04-18T03:11:03.691Z,79.00
2023-04-18T03:12:03.682Z,78.92
2023-04-18T03:13:03.675Z,78.86
2023-04-18T03:14:03.680Z,78.87
2023-04-18T03:15:03.651Z,78.88
2023-04-18T03:16:03.751Z,78.95
2023-04-18T03:17:03.639Z,79.04
2023-04-18T03:18:03.679Z,79.03
2023-04-18T03:19:03.618Z,78.99
2023-04-18T03:20:03.614Z,79.04
2023-04-18T03:21:03.580Z,79.09
2023-04-18T03:22:03.579Z,79.13
2023-04-18T03:23:03.579Z,79.26
2023-04-18T03:24:03.554Z,79.30
2023-04-18T03:25:03.569Z,79.30
2023-04-18T03:26:03.532Z,79.33
2023-04-18T03:27:03.520Z,79.26
2023-04-18T03:28:03.485Z,79.19
2023-04-18T03:29:03.476Z,79.14
2023-04-18T03:30:03.478Z,79.10
2023-04-18T03:31:03.475Z,79.10
2023-04-18T03:32:03.440Z,79.19
2023-04-18T03:33:03.509Z,79.32
2023-04-18T03:34:03.418Z,79.33
2023-04-18T03:35:03.389Z,79.25
2023-04-18T03:36:03.400Z,79.15
2023-04-18T03:37:03.404Z,79.10
2023-04-18T03:38:03.372Z,79.17
2023-04-18T03:39:03.353Z,79.17
2023-04-18T03:40:03.345Z,79.21
2023-04-18T03:41:03.346Z,79.17
2023-04-18T03:42:03.332Z,79.13
2023-04-18T03:43:03.297Z,79.17
2023-04-18T03:44:03.288Z,79.22
2023-04-18T03:45:03.276Z,79.24
2023-04-18T03:46:03.324Z,79.26
2023-04-18T03:47:03.236Z,79.30
2023-04-18T03:48:03.312Z,79.35
2023-04-18T03:49:03.229Z,79.27
2023-04-18T03:50:03.247Z,79.20
2023-04-18T03:51:03.217Z,79.19
2023-04-18T03:52:03.196Z,79.24
2023-04-18T03:53:03.206Z,79.20
2023-04-18T03:54:03.173Z,79.18
2023-04-18T03:55:03.170Z,79.17
2023-04-18T03:56:03.170Z,79.12
2023-04-18T03:57:03.128Z,79.08
2023-04-18T03:58:03.117Z,79.11
2023-04-18T03:59:03.103Z,79.06
2023-04-18T04:00:03.108Z,78.97
2023-04-18T04:01:03.086Z,78.98
2023-04-18T04:02:03.102Z,79.04
2023-04-18T04:03:03.162Z,79.11
2023-04-18T04:04:03.137Z,79.08
2023-04-18T04:05:03.132Z,79.03
2023-04-18T04:06:03.022Z,78.92
2023-04-18T04:07:03.033Z,78.89
2023-04-18T04:08:03.005Z,78.87
2023-04-18T04:09:03.001Z,78.87
2023-04-18T04:10:03.000Z,78.98
2023-04-18T04:11:02.965Z,78.96
2023-04-18T04:12:02.990Z,78.83
2023-04-18T04:13:02.970Z,78.88
2023-04-18T04:14:02.951Z,78.90
2023-04-18T04:15:02.914Z,79.04
2023-04-18T04:16:02.930Z,79.04
2023-04-18T04:17:02.881Z,79.10
2023-04-18T04:18:02.956Z,79.17
2023-04-18T04:19:02.865Z,79.09
2023-04-18T04:20:02.851Z,79.02
2023-04-18T04:21:02.843Z,79.01
2023-04-18T04:22:02.834Z,79.02
2023-04-18T04:23:02.826Z,79.02
2023-04-18T04:24:02.805Z,79.10
2023-04-18T04:25:02.797Z,79.16
2023-04-18T04:26:02.763Z,79.15
2023-04-18T04:27:02.763Z,79.17
2023-04-18T04:28:02.745Z,79.13
2023-04-18T04:29:02.728Z,79.20
2023-04-18T04:30:02.717Z,79.23
2023-04-18T04:31:02.692Z,79.25
2023-04-18T04:32:02.707Z,79.23
2023-04-18T04:33:02.752Z,79.22
2023-04-18T04:34:02.698Z,79.18
2023-04-18T04:35:02.670Z,79.28
2023-04-18T04:36:02.666Z,79.29
2023-04-18T04:37:02.640Z,79.28
2023-04-18T04:38:02.649Z,79.28
2023-04-18T04:39:02.617Z,79.30
2023-04-18T04:40:02.598Z,79.26
2023-04-18T04:41:02.570Z,79.28
2023-04-18T04:42:02.590Z,79.27
2023-04-18T04:43:02.585Z,79.19
2023-04-18T04:44:02.548Z,79.13
2023-04-18T04:45:02.585Z,79.07
2023-04-18T04:46:02.557Z,79.12
2023-04-18T04:47:02.488Z,79.09
2023-04-18T04:48:02.519Z,79.10
2023-04-18T04:49:02.527Z,79.09
2023-04-18T04:50:02.477Z,79.10
2023-04-18T04:51:02.470Z,79.13
2023-04-18T04:52:02.452Z,79.15
2023-04-18T04:53:02.418Z,79.24
2023-04-18T04:54:02.428Z,79.22
2023-04-18T04:55:02.412Z,79.26
2023-04-18T04:56:02.375Z,79.37
2023-04-18T04:57:02.375Z,79.38
2023-04-18T04:58:02.357Z,79.36
2023-04-18T04:59:02.369Z,79.29
2023-04-18T05:00:02.398Z,79.27
2023-04-18T05:01:02.373Z,79.25
2023-04-18T05:02:02.429Z,79.25
2023-04-18T05:03:02.560Z,79.31
2023-04-18T05:04:02.436Z,79.36
2023-04-18T05:05:02.309Z,79.37
2023-04-18T05:06:02.265Z,79.32
2023-04-18T05:07:02.237Z,79.20
2023-04-18T05:08:02.265Z,79.11
2023-04-18T05:09:02.215Z,79.09
2023-04-18T05:10:02.215Z,79.08
2023-04-18T05:11:02.179Z,79.02
2023-04-18T05:12:02.208Z,79.09
2023-04-18T05:13:02.153Z,79.14
2023-04-18T05:14:02.193Z,79.15
2023-04-18T05:15:02.150Z,79.14
2023-04-18T05:16:02.117Z,79.17
2023-04-18T05:17:02.275Z,79.24
2023-04-18T05:18:02.203Z,79.20
2023-04-18T05:19:02.115Z,79.23
2023-04-18T05:20:02.124Z,79.25
2023-04-18T05:21:02.079Z,79.28
2023-04-18T05:22:02.049Z,79.30
2023-04-18T05:23:02.062Z,79.26
2023-04-18T05:24:02.041Z,79.24
2023-04-18T05:25:02.029Z,79.15
2023-04-18T05:26:01.991Z,79.08
2023-04-18T05:27:01.998Z,79.00
2023-04-18T05:28:01.975Z,78.98
2023-04-18T05:29:02.079Z,79.01
2023-04-18T05:30:01.957Z,78.98
2023-04-18T05:31:02.031Z,78.96
2023-04-18T05:32:01.932Z,78.93
2023-04-18T05:33:01.954Z,78.98
2023-04-18T05:34:01.913Z,78.99
2023-04-18T05:35:01.928Z,79.02
2023-04-18T05:36:01.872Z,78.97
2023-04-18T05:37:01.862Z,79.00
2023-04-18T05:38:01.881Z,79.00
2023-04-18T05:39:01.826Z,78.93
2023-04-18T05:40:01.886Z,78.90
2023-04-18T05:41:01.845Z,78.95
2023-04-18T05:42:01.801Z,78.89
2023-04-18T05:43:01.779Z,78.88
2023-04-18T05:44:17.134Z,78.85
2023-04-18T05:45:01.777Z,78.91
2023-04-18T05:46:01.811Z,78.97
2023-04-18T05:47:01.728Z,78.92
2023-04-18T05:48:01.910Z,78.86
2023-04-18T05:49:01.763Z,78.86
2023-04-18T05:50:01.727Z,78.81
2023-04-18T05:51:01.707Z,78.71
2023-04-18T05:52:01.696Z,78.66
2023-04-18T05:53:01.656Z,78.70
2023-04-18T05:54:01.662Z,78.75
2023-04-18T05:55:01.778Z,78.77
2023-04-18T05:56:01.616Z,78.86
2023-04-18T05:57:03.810Z,78.80
2023-04-18T05:58:01.590Z,78.75
2023-04-18T05:59:01.570Z,78.73
2023-04-18T06:00:01.791Z,78.83
2023-04-18T06:01:01.568Z,78.88
2023-04-18T06:02:01.613Z,78.87
2023-04-18T06:03:01.770Z,78.91
2023-04-18T06:04:01.653Z,78.94
2023-04-18T06:05:01.733Z,79.05
2023-04-18T06:06:01.540Z,79.10
2023-04-18T06:07:01.503Z,79.15
2023-04-18T06:08:01.506Z,79.10
2023-04-18T06:09:01.488Z,78.97
2023-04-18T06:10:01.459Z,78.84
2023-04-18T06:11:01.441Z,78.83
2023-04-18T06:12:01.423Z,78.82
2023-04-18T06:13:01.396Z,78.79
2023-04-18T06:14:01.440Z,78.71
2023-04-18T06:15:01.364Z,78.63
2023-04-18T06:16:01.415Z,78.47
2023-04-18T06:17:01.368Z,78.39
2023-04-18T06:18:01.407Z,78.33
2023-04-18T06:19:01.512Z,78.25
2023-04-18T06:20:01.363Z,78.20
2023-04-18T06:21:01.321Z,78.18
2023-04-18T06:22:01.285Z,78.06
2023-04-18T06:23:01.313Z,77.95
2023-04-18T06:24:01.268Z,77.92
2023-04-18T06:25:01.255Z,78.00
2023-04-18T06:26:01.283Z,78.04
2023-04-18T06:27:01.241Z,78.07
2023-04-18T06:28:01.217Z,78.04
2023-04-18T06:29:01.194Z,77.95
2023-04-18T06:30:01.211Z,77.94
2023-04-18T06:31:01.177Z,78.02
2023-04-18T06:32:01.227Z,77.98
2023-04-18T06:33:01.207Z,77.83
2023-04-18T06:34:01.150Z,77.75
2023-04-18T06:35:01.151Z,77.73
2023-04-18T06:36:01.119Z,77.79
2023-04-18T06:37:01.124Z,77.75
2023-04-18T06:38:01.084Z,77.67
2023-04-18T06:39:01.090Z,77.69
2023-04-18T06:40:01.060Z,77.61
2023-04-18T06:41:01.067Z,77.64
2023-04-18T06:42:01.033Z,77.59
2023-04-18T06:43:01.015Z,77.50
2023-04-18T06:44:04.004Z,77.46
2023-04-18T06:45:01.025Z,77.39
2023-04-18T06:46:00.998Z,77.34
2023-04-18T06:47:00.965Z,77.30
2023-04-18T06:48:01.007Z,77.39
2023-04-18T06:49:00.959Z,77.51
2023-04-18T06:50:00.930Z,77.63
2023-04-18T06:51:00.940Z,77.60
2023-04-18T06:52:00.901Z,77.48
2023-04-18T06:53:00.888Z,77.43
2023-04-18T06:54:01.580Z,77.56
2023-04-18T06:55:00.864Z,77.96
2023-04-18T06:56:00.880Z,78.01
2023-04-18T06:57:00.861Z,77.73
2023-04-18T06:58:00.833Z,77.49
2023-04-18T06:59:00.837Z,77.24
2023-04-18T07:00:00.832Z,77.29
2023-04-18T07:01:00.825Z,77.33
2023-04-18T07:02:00.810Z,77.42
2023-04-18T07:03:01.043Z,77.55
2023-04-18T07:04:00.828Z,77.67
2023-04-18T07:05:00.752Z,77.50
2023-04-18T07:06:00.777Z,77.19
2023-04-18T07:07:00.791Z,76.81
2023-04-18T07:08:00.703Z,76.66
2023-04-18T07:09:00.694Z,76.61
2023-04-18T07:10:00.669Z,76.72
2023-04-18T07:11:00.729Z,76.85
2023-04-18T07:12:00.670Z,76.84
2023-04-18T07:13:00.647Z,76.80
2023-04-18T07:14:00.647Z,76.73
2023-04-18T07:15:00.612Z,76.77
2023-04-18T07:16:00.607Z,76.82
2023-04-18T07:17:00.672Z,76.88
2023-04-18T07:18:00.635Z,76.90
2023-04-18T07:19:00.601Z,76.84
2023-04-18T07:20:00.551Z,76.86
2023-04-18T07:21:00.545Z,76.70
2023-04-18T07:22:00.542Z,76.67
2023-04-18T07:23:00.543Z,76.67
2023-04-18T07:24:00.525Z,76.63
2023-04-18T07:25:00.514Z,76.69
2023-04-18T07:26:00.522Z,76.74
2023-04-18T07:27:00.485Z,77.04
2023-04-18T07:28:00.492Z,77.24
2023-04-18T07:29:00.476Z,77.39
2023-04-18T07:30:00.433Z,77.20
2023-04-18T07:31:00.452Z,77.07
2023-04-18T07:32:00.426Z,76.65
2023-04-18T07:33:00.443Z,76.57
2023-04-18T07:34:00.382Z,76.40
2023-04-18T07:35:00.394Z,76.15
2023-04-18T07:36:00.365Z,76.19
2023-04-18T07:37:00.373Z,76.18
2023-04-18T07:38:00.345Z,76.10
2023-04-18T07:39:00.346Z,75.96
2023-04-18T07:40:00.301Z,75.88
2023-04-18T07:41:00.312Z,75.70
2023-04-18T07:42:00.286Z,75.65
2023-04-18T07:43:00.294Z,75.47
2023-04-18T07:44:00.258Z,75.56
2023-04-18T07:45:00.259Z,75.68
2023-04-18T07:46:00.278Z,75.70
2023-04-18T07:47:00.215Z,75.47
2023-04-18T07:48:00.259Z,75.02
2023-04-18T07:49:00.223Z,74.33
2023-04-18T07:50:00.218Z,74.25
2023-04-18T07:51:00.182Z,73.78
2023-04-18T07:52:00.169Z,73.81
2023-04-18T07:53:00.163Z,73.46
2023-04-18T07:54:00.153Z,73.13
2023-04-18T07:55:00.127Z,73.21
2023-04-18T07:56:00.154Z,73.06
2023-04-18T07:57:00.163Z,72.85
2023-04-18T07:58:00.131Z,72.59
2023-04-18T07:59:00.129Z,72.53
2023-04-18T08:00:00.112Z,72.67
2023-04-18T08:01:00.058Z,72.88
2023-04-18T08:02:00.132Z,72.54
2023-04-18T08:03:00.168Z,72.24
2023-04-18T08:04:00.151Z,71.96
2023-04-18T08:05:00.111Z,71.68
2023-04-18T08:06:00.007Z,71.74
2023-04-18T08:07:00.049Z,71.65
2023-04-18T08:07:59.976Z,71.84
2023-04-18T08:08:59.971Z,71.73
2023-04-18T08:09:59.952Z,71.62
2023-04-18T08:10:59.991Z,71.48
2023-04-18T08:11:59.952Z,71.70
2023-04-18T08:12:59.914Z,71.74
2023-04-18T08:13:59.932Z,71.79
2023-04-18T08:14:59.875Z,72.00
2023-04-18T08:16:00.003Z,71.76
2023-04-18T08:16:59.910Z,71.58
2023-04-18T08:17:59.908Z,71.59
2023-04-18T08:18:59.864Z,71.62
2023-04-18T08:19:59.818Z,71.65
2023-04-18T08:20:59.833Z,71.59
2023-04-18T08:21:59.805Z,71.48
2023-04-18T08:23:06.110Z,71.52
2023-04-18T08:23:59.826Z,71.29
2023-04-18T08:25:04.931Z,71.01
2023-04-18T08:25:59.756Z,71.16
2023-04-18T08:26:59.874Z,71.46
2023-04-18T08:27:59.767Z,71.32
2023-04-18T08:28:59.740Z,70.92
2023-04-18T08:29:59.730Z,70.86
2023-04-18T08:30:59.724Z,71.06
2023-04-18T08:31:59.767Z,71.28
2023-04-18T08:32:59.752Z,71.31
2023-04-18T08:33:59.699Z,71.34
2023-04-18T08:34:59.653Z,71.55
2023-04-18T08:35:59.648Z,71.67
2023-04-18T08:36:59.659Z,71.75
2023-04-18T08:37:59.644Z,71.56
2023-04-18T08:38:59.631Z,71.61
2023-04-18T08:39:59.596Z,71.68
2023-04-18T08:40:59.590Z,71.83
2023-04-18T08:41:59.626Z,71.80
2023-04-18T08:42:59.565Z,71.83
2023-04-18T08:43:59.537Z,72.11
2023-04-18T08:44:59.575Z,72.24
2023-04-18T08:45:59.646Z,72.38
2023-04-18T08:46:59.541Z,72.43
2023-04-18T08:47:59.616Z,72.60
2023-04-18T08:48:59.543Z,72.76
2023-04-18T08:49:59.501Z,72.87
2023-04-18T08:50:59.468Z,72.85
2023-04-18T08:51:59.446Z,72.87
2023-04-18T08:52:59.442Z,72.80
2023-04-18T08:53:59.415Z,72.92
2023-04-18T08:54:59.423Z,73.10
2023-04-18T08:55:59.429Z,73.20
2023-04-18T08:56:59.397Z,73.20
2023-04-18T08:57:59.386Z,73.37
2023-04-18T08:58:59.362Z,73.51
2023-04-18T08:59:59.372Z,73.50
2023-04-18T09:00:59.393Z,73.48
2023-04-18T09:01:59.448Z,73.50
2023-04-18T09:02:59.411Z,73.52
2023-04-18T09:03:59.361Z,73.61
2023-04-18T09:04:59.307Z,73.72
2023-04-18T09:05:59.310Z,73.74
2023-04-18T09:06:59.278Z,73.70
2023-04-18T09:07:59.247Z,73.62
2023-04-18T09:08:59.409Z,73.65
2023-04-18T09:09:59.233Z,73.63
2023-04-18T09:10:59.238Z,73.66
2023-04-18T09:11:59.235Z,73.82
2023-04-18T09:12:59.222Z,73.79
2023-04-18T09:13:59.348Z,73.88
2023-04-18T09:14:59.229Z,74.08
2023-04-18T09:15:59.165Z,74.13
2023-04-18T09:16:59.198Z,74.29
2023-04-18T09:17:59.193Z,74.31
2023-04-18T09:18:59.120Z,74.35
2023-04-18T09:19:59.099Z,74.32
2023-04-18T09:20:59.133Z,74.33
2023-04-18T09:21:59.098Z,74.50
2023-04-18T09:22:59.077Z,74.52
2023-04-18T09:23:59.066Z,74.53
2023-04-18T09:24:59.168Z,74.64
2023-04-18T09:25:59.032Z,74.74
2023-04-18T09:26:59.054Z,74.80
2023-04-18T09:27:59.023Z,74.91
2023-04-18T09:28:59.000Z,75.00
2023-04-18T09:29:58.990Z,75.07
2023-04-18T09:30:59.041Z,75.03
2023-04-18T09:31:58.968Z,75.09
2023-04-18T09:32:59.202Z,75.04
2023-04-18T09:33:58.940Z,75.04
2023-04-18T09:34:58.935Z,74.91
2023-04-18T09:35:58.907Z,74.85
2023-04-18T09:37:07.039Z,74.84
2023-04-18T09:38:00.377Z,74.74
2023-04-18T09:38:59.508Z,74.61
2023-04-18T09:40:00.644Z,74.47
2023-04-18T09:40:58.874Z,74.22
2023-04-18T09:41:58.853Z,74.03
2023-04-18T09:42:58.828Z,74.03
2023-04-18T09:43:59.000Z,73.98
2023-04-18T09:44:58.801Z,74.02
2023-04-18T09:45:58.855Z,73.98
2023-04-18T09:46:58.808Z,73.96
2023-04-18T09:47:58.827Z,73.92
2023-04-18T09:48:58.788Z,73.97
2023-04-18T09:49:58.728Z,73.99
2023-04-18T09:50:58.715Z,73.90
2023-04-18T09:51:58.702Z,73.76
2023-04-18T09:52:58.708Z,73.63
2023-04-18T09:53:58.735Z,73.58
2023-04-18T09:54:58.690Z,73.68
2023-04-18T09:55:58.662Z,73.71
2023-04-18T09:56:58.646Z,73.80
2023-04-18T09:57:58.645Z,73.83
2023-04-18T09:58:58.637Z,73.68
2023-04-18T09:59:58.642Z,73.69
2023-04-18T10:00:58.638Z,73.84
2023-04-18T10:01:58.661Z,73.84
2023-04-18T10:02:58.685Z,73.94
2023-04-18T10:03:59.898Z,73.93
2023-04-18T10:04:58.638Z,73.84
2023-04-18T10:05:58.528Z,73.83
2023-04-18T10:06:58.544Z,73.79
2023-04-18T10:07:58.570Z,73.78
2023-04-18T10:08:58.495Z,73.80
2023-04-18T10:09:58.507Z,73.96
2023-04-18T10:10:58.518Z,73.93
2023-04-18T10:11:58.444Z,74.00
2023-04-18T10:12:58.460Z,73.99
2023-04-18T10:13:58.427Z,73.88
2023-04-18T10:14:59.270Z,73.79
2023-04-18T10:15:58.409Z,73.69
2023-04-18T10:16:58.383Z,73.62
2023-04-18T10:18:04.409Z,73.68
2023-04-18T10:18:58.381Z,73.44
2023-04-18T10:19:58.350Z,73.05
2023-04-18T10:20:58.400Z,72.94
2023-04-18T10:21:58.411Z,72.97
2023-04-18T10:22:58.330Z,72.97
2023-04-18T10:23:58.394Z,73.00
2023-04-18T10:24:58.336Z,73.06
2023-04-18T10:25:58.345Z,73.01
2023-04-18T10:26:58.957Z,73.16
2023-04-18T10:27:58.274Z,73.16
2023-04-18T10:28:59.785Z,73.06
2023-04-18T10:29:58.252Z,73.01
2023-04-18T10:30:58.338Z,73.13
2023-04-18T10:31:58.276Z,73.12
2023-04-18T10:32:58.280Z,73.12
2023-04-18T10:34:58.252Z,73.21
2023-04-18T10:35:58.189Z,73.26
2023-04-18T10:36:58.170Z,73.12
2023-04-18T10:37:58.152Z,73.04
2023-04-18T10:38:58.138Z,72.95
2023-04-18T10:39:58.159Z,72.91
2023-04-18T10:40:58.121Z,72.84
2023-04-18T10:41:58.784Z,72.79
2023-04-18T10:42:58.099Z,72.81
2023-04-18T10:43:58.089Z,72.76
2023-04-18T10:44:58.058Z,72.62
2023-04-18T10:45:58.041Z,72.63
2023-04-18T10:46:58.133Z,72.68
2023-04-18T10:47:58.114Z,72.82
2023-04-18T10:48:58.010Z,72.70
2023-04-18T10:49:58.077Z,72.79
2023-04-18T10:50:57.990Z,72.79
2023-04-18T10:51:57.998Z,72.77
2023-04-18T10:52:58.045Z,72.53
2023-04-18T10:53:57.956Z,72.32
2023-04-18T10:54:59.102Z,72.27
2023-04-18T10:55:57.959Z,72.04
2023-04-18T10:56:57.928Z,71.94
2023-04-18T10:57:57.900Z,71.93
2023-04-18T10:58:57.903Z,71.93
2023-04-18T10:59:57.872Z,72.01
2023-04-18T11:00:57.893Z,72.18
2023-04-18T11:01:57.881Z,72.12
2023-04-18T11:02:58.095Z,72.11
2023-04-18T11:03:57.904Z,72.21
2023-04-18T11:04:57.844Z,72.04
2023-04-18T11:05:57.795Z,71.84
2023-04-18T11:06:57.816Z,71.93
2023-04-18T11:07:59.818Z,71.75
2023-04-18T11:08:58.217Z,71.65
2023-04-18T11:09:57.765Z,71.70
2023-04-18T11:10:57.735Z,71.90
2023-04-18T11:11:57.731Z,72.03
2023-04-18T11:12:57.712Z,72.12
2023-04-18T11:13:57.710Z,72.21
2023-04-18T11:14:57.696Z,72.34
2023-04-18T11:15:57.681Z,72.32
2023-04-18T11:16:58.392Z,72.12
2023-04-18T11:17:57.770Z,72.15
2023-04-18T11:18:57.683Z,72.07
2023-04-18T11:19:57.719Z,72.11
2023-04-18T11:20:57.615Z,72.23
2023-04-18T11:21:57.625Z,72.25
2023-04-18T11:22:57.607Z,72.33
2023-04-18T11:23:57.600Z,72.53
2023-04-18T11:24:57.614Z,72.49
2023-04-18T11:25:57.549Z,72.38
2023-04-18T11:26:57.546Z,72.30
2023-04-18T11:27:57.554Z,72.26
2023-04-18T11:28:57.692Z,72.26
2023-04-18T11:29:57.543Z,72.31
2023-04-18T11:30:57.505Z,72.35
2023-04-18T11:31:58.560Z,72.44
2023-04-18T11:32:57.535Z,72.55
2023-04-18T11:33:57.477Z,72.53
2023-04-18T11:34:57.458Z,72.28
2023-04-18T11:35:57.441Z,72.14
2023-04-18T11:36:57.435Z,71.76
2023-04-18T11:37:57.410Z,71.68
2023-04-18T11:38:57.405Z,71.57
2023-04-18T11:39:57.384Z,71.66
2023-04-18T11:40:57.382Z,71.68
2023-04-18T11:41:57.380Z,71.71
2023-04-18T11:42:57.416Z,71.64
2023-04-18T11:43:57.337Z,71.54
2023-04-18T11:44:57.316Z,71.43
2023-04-18T11:45:57.385Z,71.47
2023-04-18T11:46:57.302Z,71.54
2023-04-18T11:47:57.364Z,71.62
2023-04-18T11:48:57.279Z,71.46
2023-04-18T11:49:57.432Z,71.38
2023-04-18T11:50:57.267Z,71.29
2023-04-18T11:51:57.248Z,71.25
2023-04-18T11:52:57.245Z,71.08
2023-04-18T11:53:57.211Z,71.11
2023-04-18T11:54:57.275Z,70.99
2023-04-18T11:55:57.223Z,71.07
2023-04-18T11:56:57.324Z,71.25
2023-04-18T11:57:57.169Z,71.03
2023-04-18T11:58:57.182Z,70.88
2023-04-18T11:59:57.144Z,70.76
2023-04-18T12:00:57.164Z,70.67
2023-04-18T12:01:58.915Z,70.68
2023-04-18T12:02:57.170Z,70.90
2023-04-18T12:03:57.264Z,70.85
2023-04-18T12:04:57.360Z,70.79
2023-04-18T12:05:57.103Z,70.73
2023-04-18T12:06:57.084Z,70.69
2023-04-18T12:07:57.055Z,70.66
2023-04-18T12:08:57.040Z,70.69
2023-04-18T12:09:57.053Z,70.72
2023-04-18T12:10:57.021Z,70.62
2023-04-18T12:11:57.006Z,70.43
2023-04-18T12:12:57.705Z,70.44
2023-04-18T12:13:56.967Z,70.42
2023-04-18T12:14:56.980Z,70.46
2023-04-18T12:15:56.971Z,70.63
2023-04-18T12:16:56.964Z,70.63
2023-04-18T12:17:56.941Z,70.73
2023-04-18T12:18:56.902Z,70.66
2023-04-18T12:19:56.935Z,70.65
2023-04-18T12:20:56.924Z,70.53
2023-04-18T12:21:56.896Z,70.24
2023-04-18T12:22:56.891Z,70.31
2023-04-18T12:23:56.895Z,70.28
2023-04-18T12:24:56.856Z,70.04
2023-04-18T12:25:56.829Z,69.95
2023-04-18T12:26:56.840Z,69.95
2023-04-18T12:27:56.816Z,70.07
2023-04-18T12:28:56.814Z,70.00
2023-04-18T12:29:56.769Z,70.03
2023-04-18T12:30:56.759Z,70.07
2023-04-18T12:31:56.988Z,70.00
2023-04-18T12:32:56.830Z,69.90
2023-04-18T12:33:56.726Z,69.57
2023-04-18T12:34:56.975Z,69.57
2023-04-18T12:35:56.703Z,69.66
2023-04-18T12:36:56.675Z,69.81
2023-04-18T12:37:56.741Z,69.88
2023-04-18T12:38:56.682Z,69.86
2023-04-18T12:39:56.686Z,69.61
2023-04-18T12:40:56.800Z,69.61
2023-04-18T12:41:56.624Z,69.43
2023-04-18T12:42:56.671Z,69.46
2023-04-18T12:43:56.599Z,69.56
2023-04-18T12:44:56.616Z,69.62
2023-04-18T12:45:56.662Z,69.56
2023-04-18T12:46:56.620Z,69.60
2023-04-18T12:47:56.629Z,69.58
2023-04-18T12:48:56.529Z,69.54
2023-04-18T12:49:56.526Z,69.53
2023-04-18T12:50:56.566Z,69.72
2023-04-18T12:51:57.278Z,69.81
2023-04-18T12:52:56.487Z,69.46